sensor_id;sensor_type;location;lat;lon;timestamp;P1;durP1;ratioP1;P2;durP2;ratioP2
11084;SDS011;5596;46.826;8.650;2023-01-16T00:01:52;0.60;;;0.60;;
11084;SDS011;5596;46.826;8.650;2023-01-16T00:04:20;0.80;;;0.80;;
11084;SDS011;5596;46.826;8.650;2023-01-16T00:06:47;0.67;;;0.67;;
11084;SDS011;5596;46.826;8.650;2023-01-16T00:09:14;0.60;;;0.60;;
11084;SDS011;5596;46.826;8.650;2023-01-16T00:11:44;0.60;;;0.50;;
11084;SDS011;5596;46.826;8.650;2023-01-16T00:14:11;0.53;;;0.53;;
11084;SDS011;5596;46.826;8.650;2023-01-16T00:16:38;1.10;;;0.90;;
11084;SDS011;5596;46.826;8.650;2023-01-16T00:19:06;0.60;;;0.60;;
11084;SDS011;5596;46.826;8.650;2023-01-16T00:21:33;1.23;;;0.90;;
11084;SDS011;5596;46.826;8.650;2023-01-16T00:24:00;2.07;;;1.50;;
11084;SDS011;5596;46.826;8.650;2023-01-16T00:26:27;1.10;;;0.97;;
11084;SDS011;5596;46.826;8.650;2023-01-16T00:28:56;1.10;;;1.00;;
11084;SDS011;5596;46.826;8.650;2023-01-16T00:31:23;1.23;;;1.00;;
11084;SDS011;5596;46.826;8.650;2023-01-16T00:33:51;0.80;;;0.80;;
11084;SDS011;5596;46.826;8.650;2023-01-16T00:36:18;1.20;;;1.10;;
11084;SDS011;5596;46.826;8.650;2023-01-16T00:38:46;2.23;;;1.40;;
11084;SDS011;5596;46.826;8.650;2023-01-16T00:41:13;2.07;;;1.23;;
11084;SDS011;5596;46.826;8.650;2023-01-16T00:43:40;1.77;;;1.20;;
11084;SDS011;5596;46.826;8.650;2023-01-16T00:46:08;1.47;;;1.10;;
11084;SDS011;5596;46.826;8.650;2023-01-16T00:48:35;1.17;;;1.07;;
11084;SDS011;5596;46.826;8.650;2023-01-16T00:51:02;1.00;;;0.90;;
11084;SDS011;5596;46.826;8.650;2023-01-16T00:53:30;2.27;;;1.23;;
11084;SDS011;5596;46.826;8.650;2023-01-16T00:55:56;1.67;;;1.03;;
11084;SDS011;5596;46.826;8.650;2023-01-16T00:58:24;1.03;;;0.93;;
11084;SDS011;5596;46.826;8.650;2023-01-16T01:00:51;0.70;;;0.70;;
11084;SDS011;5596;46.826;8.650;2023-01-16T01:03:19;0.80;;;0.80;;
11084;SDS011;5596;46.826;8.650;2023-01-16T01:05:46;0.83;;;0.80;;
11084;SDS011;5596;46.826;8.650;2023-01-16T01:08:13;0.80;;;0.80;;
11084;SDS011;5596;46.826;8.650;2023-01-16T01:10:40;0.70;;;0.70;;
11084;SDS011;5596;46.826;8.650;2023-01-16T01:13:08;0.53;;;0.50;;
11084;SDS011;5596;46.826;8.650;2023-01-16T01:15:35;0.47;;;0.47;;
11084;SDS011;5596;46.826;8.650;2023-01-16T01:18:02;0.50;;;0.50;;
11084;SDS011;5596;46.826;8.650;2023-01-16T01:20:30;0.93;;;0.53;;
11084;SDS011;5596;46.826;8.650;2023-01-16T01:22:58;0.50;;;0.50;;
11084;SDS011;5596;46.826;8.650;2023-01-16T01:25:25;0.50;;;0.50;;
11084;SDS011;5596;46.826;8.650;2023-01-16T01:27:52;0.73;;;0.67;;
11084;SDS011;5596;46.826;8.650;2023-01-16T01:30:19;0.60;;;0.60;;
11084;SDS011;5596;46.826;8.650;2023-01-16T01:32:46;0.63;;;0.63;;
11084;SDS011;5596;46.826;8.650;2023-01-16T01:35:13;0.50;;;0.50;;
11084;SDS011;5596;46.826;8.650;2023-01-16T01:37:44;0.40;;;0.40;;
11084;SDS011;5596;46.826;8.650;2023-01-16T01:40:11;0.40;;;0.40;;
11084;SDS011;5596;46.826;8.650;2023-01-16T01:42:38;0.40;;;0.40;;
11084;SDS011;5596;46.826;8.650;2023-01-16T01:45:11;0.47;;;0.47;;
11084;SDS011;5596;46.826;8.650;2023-01-16T01:47:41;0.97;;;0.60;;
11084;SDS011;5596;46.826;8.650;2023-01-16T01:50:18;0.70;;;0.60;;
11084;SDS011;5596;46.826;8.650;2023-01-16T01:52:54;0.90;;;0.60;;
11084;SDS011;5596;46.826;8.650;2023-01-16T01:55:26;0.60;;;0.60;;
11084;SDS011;5596;46.826;8.650;2023-01-16T01:57:55;0.60;;;0.60;;
11084;SDS011;5596;46.826;8.650;2023-01-16T02:00:26;1.10;;;0.77;;
11084;SDS011;5596;46.826;8.650;2023-01-16T02:02:55;1.10;;;1.00;;
11084;SDS011;5596;46.826;8.650;2023-01-16T02:05:28;0.50;;;0.50;;
11084;SDS011;5596;46.826;8.650;2023-01-16T02:07:58;0.60;;;0.60;;
11084;SDS011;5596;46.826;8.650;2023-01-16T02:10:29;0.50;;;0.50;;
11084;SDS011;5596;46.826;8.650;2023-01-16T02:13:01;0.50;;;0.50;;
11084;SDS011;5596;46.826;8.650;2023-01-16T02:15:29;0.50;;;0.50;;
11084;SDS011;5596;46.826;8.650;2023-01-16T02:17:56;0.40;;;0.40;;
11084;SDS011;5596;46.826;8.650;2023-01-16T02:20:46;2.30;;;0.60;;
11084;SDS011;5596;46.826;8.650;2023-01-16T02:26:39;0.60;;;0.60;;
11084;SDS011;5596;46.826;8.650;2023-01-16T02:29:26;1.03;;;0.67;;
11084;SDS011;5596;46.826;8.650;2023-01-16T02:32:23;0.60;;;0.60;;
11084;SDS011;5596;46.826;8.650;2023-01-16T02:35:08;0.70;;;0.70;;
11084;SDS011;5596;46.826;8.650;2023-01-16T02:37:49;0.50;;;0.50;;
11084;SDS011;5596;46.826;8.650;2023-01-16T02:40:27;0.60;;;0.60;;
11084;SDS011;5596;46.826;8.650;2023-01-16T02:43:07;0.40;;;0.40;;
11084;SDS011;5596;46.826;8.650;2023-01-16T02:45:46;0.40;;;0.40;;
11084;SDS011;5596;46.826;8.650;2023-01-16T02:48:23;0.70;;;0.70;;
11084;SDS011;5596;46.826;8.650;2023-01-16T02:50:57;0.60;;;0.60;;
11084;SDS011;5596;46.826;8.650;2023-01-16T02:53:32;0.87;;;0.80;;
11084;SDS011;5596;46.826;8.650;2023-01-16T02:56:06;0.70;;;0.70;;
11084;SDS011;5596;46.826;8.650;2023-01-16T02:58:43;0.73;;;0.70;;
11084;SDS011;5596;46.826;8.650;2023-01-16T03:01:12;0.60;;;0.60;;
11084;SDS011;5596;46.826;8.650;2023-01-16T03:03:42;0.60;;;0.60;;
11084;SDS011;5596;46.826;8.650;2023-01-16T03:06:30;0.67;;;0.67;;
11084;SDS011;5596;46.826;8.650;2023-01-16T03:09:18;0.80;;;0.80;;
11084;SDS011;5596;46.826;8.650;2023-01-16T03:12:03;0.70;;;0.57;;
11084;SDS011;5596;46.826;8.650;2023-01-16T03:14:43;0.67;;;0.60;;
11084;SDS011;5596;46.826;8.650;2023-01-16T03:17:33;0.83;;;0.70;;
11084;SDS011;5596;46.826;8.650;2023-01-16T03:20:13;1.10;;;1.00;;
11084;SDS011;5596;46.826;8.650;2023-01-16T03:22:52;0.70;;;0.70;;
11084;SDS011;5596;46.826;8.650;2023-01-16T03:25:24;0.40;;;0.40;;
11084;SDS011;5596;46.826;8.650;2023-01-16T03:27:57;0.50;;;0.50;;
11084;SDS011;5596;46.826;8.650;2023-01-16T03:30:34;0.60;;;0.50;;
11084;SDS011;5596;46.826;8.650;2023-01-16T03:33:14;0.50;;;0.50;;
11084;SDS011;5596;46.826;8.650;2023-01-16T03:35:51;1.30;;;1.20;;
11084;SDS011;5596;46.826;8.650;2023-01-16T03:38:23;0.57;;;0.50;;
11084;SDS011;5596;46.826;8.650;2023-01-16T03:40:52;0.60;;;0.60;;
11084;SDS011;5596;46.826;8.650;2023-01-16T03:43:27;0.50;;;0.50;;
11084;SDS011;5596;46.826;8.650;2023-01-16T03:45:59;0.40;;;0.40;;
11084;SDS011;5596;46.826;8.650;2023-01-16T03:48:32;0.50;;;0.50;;
11084;SDS011;5596;46.826;8.650;2023-01-16T03:51:06;0.87;;;0.50;;
11084;SDS011;5596;46.826;8.650;2023-01-16T03:53:35;0.50;;;0.50;;
11084;SDS011;5596;46.826;8.650;2023-01-16T03:56:07;0.60;;;0.60;;
11084;SDS011;5596;46.826;8.650;2023-01-16T03:58:39;0.60;;;0.60;;
11084;SDS011;5596;46.826;8.650;2023-01-16T04:01:11;0.60;;;0.60;;
11084;SDS011;5596;46.826;8.650;2023-01-16T04:03:46;0.50;;;0.50;;
11084;SDS011;5596;46.826;8.650;2023-01-16T04:06:22;3.87;;;0.50;;
11084;SDS011;5596;46.826;8.650;2023-01-16T04:08:56;1.40;;;0.53;;
11084;SDS011;5596;46.826;8.650;2023-01-16T04:11:25;0.40;;;0.40;;
11084;SDS011;5596;46.826;8.650;2023-01-16T04:13:53;0.47;;;0.47;;
11084;SDS011;5596;46.826;8.650;2023-01-16T04:16:26;0.60;;;0.60;;
11084;SDS011;5596;46.826;8.650;2023-01-16T04:18:55;0.97;;;0.50;;
11084;SDS011;5596;46.826;8.650;2023-01-16T04:21:26;0.60;;;0.60;;
11084;SDS011;5596;46.826;8.650;2023-01-16T04:23:55;1.63;;;1.30;;
11084;SDS011;5596;46.826;8.650;2023-01-16T04:26:24;0.80;;;0.80;;
11084;SDS011;5596;46.826;8.650;2023-01-16T04:28:51;0.50;;;0.50;;
11084;SDS011;5596;46.826;8.650;2023-01-16T04:31:21;0.77;;;0.77;;
11084;SDS011;5596;46.826;8.650;2023-01-16T04:33:49;8.73;;;2.70;;
11084;SDS011;5596;46.826;8.650;2023-01-16T04:36:16;1.77;;;0.93;;
11084;SDS011;5596;46.826;8.650;2023-01-16T04:38:44;0.70;;;0.70;;
11084;SDS011;5596;46.826;8.650;2023-01-16T04:41:11;6.13;;;3.80;;
11084;SDS011;5596;46.826;8.650;2023-01-16T04:43:58;0.83;;;0.83;;
11084;SDS011;5596;46.826;8.650;2023-01-16T04:46:26;0.93;;;0.87;;
11084;SDS011;5596;46.826;8.650;2023-01-16T04:48:53;1.00;;;0.90;;
11084;SDS011;5596;46.826;8.650;2023-01-16T04:51:20;2.40;;;0.80;;
11084;SDS011;5596;46.826;8.650;2023-01-16T04:53:49;1.60;;;0.77;;
11084;SDS011;5596;46.826;8.650;2023-01-16T04:56:16;1.70;;;1.10;;
11084;SDS011;5596;46.826;8.650;2023-01-16T04:58:43;0.80;;;0.80;;
11084;SDS011;5596;46.826;8.650;2023-01-16T05:01:10;0.80;;;0.80;;
11084;SDS011;5596;46.826;8.650;2023-01-16T05:03:37;0.80;;;0.70;;
11084;SDS011;5596;46.826;8.650;2023-01-16T05:06:04;0.83;;;0.73;;
11084;SDS011;5596;46.826;8.650;2023-01-16T05:08:32;0.50;;;0.50;;
11084;SDS011;5596;46.826;8.650;2023-01-16T05:11:00;0.60;;;0.60;;
11084;SDS011;5596;46.826;8.650;2023-01-16T05:13:27;1.10;;;1.00;;
11084;SDS011;5596;46.826;8.650;2023-01-16T05:15:54;0.70;;;0.70;;
11084;SDS011;5596;46.826;8.650;2023-01-16T05:18:22;1.03;;;0.70;;
11084;SDS011;5596;46.826;8.650;2023-01-16T05:20:50;0.70;;;0.70;;
11084;SDS011;5596;46.826;8.650;2023-01-16T05:23:17;1.00;;;1.00;;
11084;SDS011;5596;46.826;8.650;2023-01-16T05:25:44;0.90;;;0.90;;
11084;SDS011;5596;46.826;8.650;2023-01-16T05:28:12;1.03;;;0.90;;
11084;SDS011;5596;46.826;8.650;2023-01-16T05:30:39;0.63;;;0.63;;
11084;SDS011;5596;46.826;8.650;2023-01-16T05:33:06;1.97;;;1.30;;
11084;SDS011;5596;46.826;8.650;2023-01-16T05:35:33;1.43;;;1.20;;
11084;SDS011;5596;46.826;8.650;2023-01-16T05:38:00;2.20;;;1.50;;
11084;SDS011;5596;46.826;8.650;2023-01-16T05:40:27;4.73;;;1.97;;
11084;SDS011;5596;46.826;8.650;2023-01-16T05:42:54;4.50;;;2.43;;
11084;SDS011;5596;46.826;8.650;2023-01-16T05:45:22;4.53;;;3.30;;
11084;SDS011;5596;46.826;8.650;2023-01-16T05:47:49;2.63;;;1.93;;
11084;SDS011;5596;46.826;8.650;2023-01-16T05:50:17;2.00;;;1.77;;
11084;SDS011;5596;46.826;8.650;2023-01-16T05:52:47;1.50;;;1.33;;
11084;SDS011;5596;46.826;8.650;2023-01-16T05:55:14;1.67;;;1.57;;
11084;SDS011;5596;46.826;8.650;2023-01-16T05:57:41;1.60;;;1.50;;
11084;SDS011;5596;46.826;8.650;2023-01-16T06:00:08;2.07;;;1.60;;
11084;SDS011;5596;46.826;8.650;2023-01-16T06:02:37;2.20;;;1.70;;
11084;SDS011;5596;46.826;8.650;2023-01-16T06:05:05;3.37;;;2.90;;
11084;SDS011;5596;46.826;8.650;2023-01-16T06:07:33;6.03;;;4.83;;
11084;SDS011;5596;46.826;8.650;2023-01-16T06:10:00;6.20;;;3.50;;
11084;SDS011;5596;46.826;8.650;2023-01-16T06:12:27;3.83;;;2.70;;
11084;SDS011;5596;46.826;8.650;2023-01-16T06:14:57;3.93;;;2.80;;
11084;SDS011;5596;46.826;8.650;2023-01-16T06:17:24;2.00;;;1.80;;
11084;SDS011;5596;46.826;8.650;2023-01-16T06:19:52;1.67;;;1.57;;
11084;SDS011;5596;46.826;8.650;2023-01-16T06:22:19;3.20;;;1.73;;
11084;SDS011;5596;46.826;8.650;2023-01-16T06:24:46;5.33;;;2.70;;
11084;SDS011;5596;46.826;8.650;2023-01-16T06:27:13;3.80;;;2.80;;
11084;SDS011;5596;46.826;8.650;2023-01-16T06:29:40;4.03;;;2.53;;
11084;SDS011;5596;46.826;8.650;2023-01-16T06:32:08;4.43;;;3.47;;
11084;SDS011;5596;46.826;8.650;2023-01-16T06:34:35;11.00;;;6.50;;
11084;SDS011;5596;46.826;8.650;2023-01-16T06:37:03;6.77;;;4.00;;
11084;SDS011;5596;46.826;8.650;2023-01-16T06:39:30;8.80;;;6.40;;
11084;SDS011;5596;46.826;8.650;2023-01-16T06:41:57;10.00;;;7.40;;
11084;SDS011;5596;46.826;8.650;2023-01-16T06:44:24;5.40;;;2.57;;
11084;SDS011;5596;46.826;8.650;2023-01-16T06:46:51;5.57;;;4.00;;
11084;SDS011;5596;46.826;8.650;2023-01-16T06:49:18;8.63;;;7.23;;
11084;SDS011;5596;46.826;8.650;2023-01-16T06:51:45;5.90;;;4.60;;
11084;SDS011;5596;46.826;8.650;2023-01-16T06:54:13;3.83;;;3.17;;
11084;SDS011;5596;46.826;8.650;2023-01-16T06:56:41;3.00;;;2.27;;
11084;SDS011;5596;46.826;8.650;2023-01-16T06:59:07;0.70;;;0.70;;
11084;SDS011;5596;46.826;8.650;2023-01-16T07:01:35;2.00;;;1.30;;
11084;SDS011;5596;46.826;8.650;2023-01-16T07:04:03;0.87;;;0.77;;
11084;SDS011;5596;46.826;8.650;2023-01-16T07:06:32;0.70;;;0.70;;
11084;SDS011;5596;46.826;8.650;2023-01-16T07:08:59;0.57;;;0.57;;
11084;SDS011;5596;46.826;8.650;2023-01-16T07:11:28;1.33;;;0.80;;
11084;SDS011;5596;46.826;8.650;2023-01-16T07:13:55;0.70;;;0.70;;
11084;SDS011;5596;46.826;8.650;2023-01-16T07:16:36;0.80;;;0.80;;
11084;SDS011;5596;46.826;8.650;2023-01-16T07:19:20;0.50;;;0.50;;
11084;SDS011;5596;46.826;8.650;2023-01-16T07:22:05;0.50;;;0.50;;
11084;SDS011;5596;46.826;8.650;2023-01-16T07:24:51;0.60;;;0.60;;
11084;SDS011;5596;46.826;8.650;2023-01-16T07:27:20;0.70;;;0.70;;
11084;SDS011;5596;46.826;8.650;2023-01-16T07:29:47;0.50;;;0.50;;
11084;SDS011;5596;46.826;8.650;2023-01-16T07:32:14;0.60;;;0.60;;
11084;SDS011;5596;46.826;8.650;2023-01-16T07:34:41;0.60;;;0.60;;
11084;SDS011;5596;46.826;8.650;2023-01-16T07:37:08;0.60;;;0.60;;
11084;SDS011;5596;46.826;8.650;2023-01-16T07:39:35;0.60;;;0.50;;
11084;SDS011;5596;46.826;8.650;2023-01-16T07:42:03;0.60;;;0.60;;
11084;SDS011;5596;46.826;8.650;2023-01-16T07:44:32;0.57;;;0.57;;
11084;SDS011;5596;46.826;8.650;2023-01-16T07:46:59;0.70;;;0.70;;
11084;SDS011;5596;46.826;8.650;2023-01-16T07:49:26;0.47;;;0.47;;
11084;SDS011;5596;46.826;8.650;2023-01-16T07:51:53;0.80;;;0.77;;
11084;SDS011;5596;46.826;8.650;2023-01-16T07:54:20;2.53;;;0.70;;
11084;SDS011;5596;46.826;8.650;2023-01-16T07:56:48;0.60;;;0.60;;
11084;SDS011;5596;46.826;8.650;2023-01-16T07:59:15;0.57;;;0.57;;
11084;SDS011;5596;46.826;8.650;2023-01-16T08:01:44;1.20;;;0.60;;
11084;SDS011;5596;46.826;8.650;2023-01-16T08:04:12;0.50;;;0.50;;
11084;SDS011;5596;46.826;8.650;2023-01-16T08:06:39;0.50;;;0.50;;
11084;SDS011;5596;46.826;8.650;2023-01-16T08:09:10;2.00;;;0.53;;
11084;SDS011;5596;46.826;8.650;2023-01-16T08:11:37;1.00;;;0.90;;
11084;SDS011;5596;46.826;8.650;2023-01-16T08:14:05;0.70;;;0.70;;
11084;SDS011;5596;46.826;8.650;2023-01-16T08:16:33;0.70;;;0.70;;
11084;SDS011;5596;46.826;8.650;2023-01-16T08:19:01;0.70;;;0.70;;
11084;SDS011;5596;46.826;8.650;2023-01-16T08:21:29;0.50;;;0.50;;
11084;SDS011;5596;46.826;8.650;2023-01-16T08:23:56;0.70;;;0.70;;
11084;SDS011;5596;46.826;8.650;2023-01-16T08:26:23;0.60;;;0.60;;
11084;SDS011;5596;46.826;8.650;2023-01-16T08:28:50;0.50;;;0.50;;
11084;SDS011;5596;46.826;8.650;2023-01-16T08:31:18;0.50;;;0.50;;
11084;SDS011;5596;46.826;8.650;2023-01-16T08:33:45;0.50;;;0.50;;
11084;SDS011;5596;46.826;8.650;2023-01-16T08:36:15;0.87;;;0.50;;
11084;SDS011;5596;46.826;8.650;2023-01-16T08:38:45;0.60;;;0.60;;
11084;SDS011;5596;46.826;8.650;2023-01-16T08:41:12;0.60;;;0.60;;
11084;SDS011;5596;46.826;8.650;2023-01-16T08:43:57;0.50;;;0.50;;
11084;SDS011;5596;46.826;8.650;2023-01-16T08:46:42;0.53;;;0.53;;
11084;SDS011;5596;46.826;8.650;2023-01-16T08:49:30;0.40;;;0.40;;
11084;SDS011;5596;46.826;8.650;2023-01-16T08:52:16;0.60;;;0.60;;
11084;SDS011;5596;46.826;8.650;2023-01-16T08:54:43;0.60;;;0.60;;
11084;SDS011;5596;46.826;8.650;2023-01-16T08:57:10;2.43;;;1.37;;
11084;SDS011;5596;46.826;8.650;2023-01-16T08:59:37;0.80;;;0.80;;
11084;SDS011;5596;46.826;8.650;2023-01-16T09:02:07;0.60;;;0.60;;
11084;SDS011;5596;46.826;8.650;2023-01-16T09:04:37;0.60;;;0.60;;
11084;SDS011;5596;46.826;8.650;2023-01-16T09:07:06;0.73;;;0.73;;
11084;SDS011;5596;46.826;8.650;2023-01-16T09:09:35;1.17;;;0.70;;
11084;SDS011;5596;46.826;8.650;2023-01-16T09:12:03;0.60;;;0.60;;
11084;SDS011;5596;46.826;8.650;2023-01-16T09:14:44;0.60;;;0.60;;
11084;SDS011;5596;46.826;8.650;2023-01-16T09:17:11;0.60;;;0.60;;
11084;SDS011;5596;46.826;8.650;2023-01-16T09:19:38;0.50;;;0.50;;
11084;SDS011;5596;46.826;8.650;2023-01-16T09:22:05;0.70;;;0.70;;
11084;SDS011;5596;46.826;8.650;2023-01-16T09:24:32;0.53;;;0.53;;
11084;SDS011;5596;46.826;8.650;2023-01-16T09:27:01;0.60;;;0.60;;
11084;SDS011;5596;46.826;8.650;2023-01-16T09:29:29;0.40;;;0.40;;
11084;SDS011;5596;46.826;8.650;2023-01-16T09:31:56;0.60;;;0.60;;
11084;SDS011;5596;46.826;8.650;2023-01-16T09:34:23;1.20;;;1.00;;
11084;SDS011;5596;46.826;8.650;2023-01-16T09:36:51;0.70;;;0.70;;
11084;SDS011;5596;46.826;8.650;2023-01-16T09:39:18;0.73;;;0.73;;
11084;SDS011;5596;46.826;8.650;2023-01-16T09:41:49;1.10;;;0.80;;
11084;SDS011;5596;46.826;8.650;2023-01-16T09:44:47;0.77;;;0.77;;
11084;SDS011;5596;46.826;8.650;2023-01-16T09:47:16;4.77;;;0.90;;
11084;SDS011;5596;46.826;8.650;2023-01-16T09:49:48;1.30;;;0.70;;
11084;SDS011;5596;46.826;8.650;2023-01-16T09:52:19;0.80;;;0.80;;
11084;SDS011;5596;46.826;8.650;2023-01-16T09:55:10;0.83;;;0.83;;
11084;SDS011;5596;46.826;8.650;2023-01-16T09:58:02;1.27;;;0.90;;
11084;SDS011;5596;46.826;8.650;2023-01-16T10:00:50;0.77;;;0.60;;
11084;SDS011;5596;46.826;8.650;2023-01-16T10:03:18;0.60;;;0.60;;
11084;SDS011;5596;46.826;8.650;2023-01-16T10:05:46;0.80;;;0.80;;
11084;SDS011;5596;46.826;8.650;2023-01-16T10:08:20;0.70;;;0.70;;
11084;SDS011;5596;46.826;8.650;2023-01-16T10:10:58;2.00;;;0.80;;
11084;SDS011;5596;46.826;8.650;2023-01-16T10:13:43;0.60;;;0.60;;
11084;SDS011;5596;46.826;8.650;2023-01-16T10:16:33;0.80;;;0.70;;
11084;SDS011;5596;46.826;8.650;2023-01-16T10:19:12;0.70;;;0.70;;
11084;SDS011;5596;46.826;8.650;2023-01-16T10:22:01;0.73;;;0.73;;
11084;SDS011;5596;46.826;8.650;2023-01-16T10:24:42;0.70;;;0.70;;
11084;SDS011;5596;46.826;8.650;2023-01-16T10:27:17;0.53;;;0.53;;
11084;SDS011;5596;46.826;8.650;2023-01-16T10:29:49;0.60;;;0.60;;
11084;SDS011;5596;46.826;8.650;2023-01-16T10:32:21;0.60;;;0.60;;
11084;SDS011;5596;46.826;8.650;2023-01-16T10:34:54;0.90;;;0.90;;
11084;SDS011;5596;46.826;8.650;2023-01-16T10:37:29;1.90;;;0.80;;
11084;SDS011;5596;46.826;8.650;2023-01-16T10:39:57;0.70;;;0.70;;
11084;SDS011;5596;46.826;8.650;2023-01-16T10:42:27;0.70;;;0.70;;
11084;SDS011;5596;46.826;8.650;2023-01-16T10:45:17;0.70;;;0.70;;
11084;SDS011;5596;46.826;8.650;2023-01-16T10:48:09;0.70;;;0.70;;
11084;SDS011;5596;46.826;8.650;2023-01-16T10:50:55;0.70;;;0.70;;
11084;SDS011;5596;46.826;8.650;2023-01-16T10:53:23;0.57;;;0.57;;
11084;SDS011;5596;46.826;8.650;2023-01-16T10:55:50;0.50;;;0.50;;
11084;SDS011;5596;46.826;8.650;2023-01-16T10:58:23;0.67;;;0.67;;
11084;SDS011;5596;46.826;8.650;2023-01-16T11:00:52;0.60;;;0.60;;
11084;SDS011;5596;46.826;8.650;2023-01-16T11:03:30;0.70;;;0.70;;
11084;SDS011;5596;46.826;8.650;2023-01-16T11:06:05;1.00;;;0.83;;
11084;SDS011;5596;46.826;8.650;2023-01-16T11:08:40;0.60;;;0.60;;
11084;SDS011;5596;46.826;8.650;2023-01-16T11:11:09;0.90;;;0.80;;
11084;SDS011;5596;46.826;8.650;2023-01-16T11:14:00;0.77;;;0.70;;
11084;SDS011;5596;46.826;8.650;2023-01-16T11:16:48;1.13;;;0.90;;
11084;SDS011;5596;46.826;8.650;2023-01-16T11:19:40;2.20;;;0.70;;
11084;SDS011;5596;46.826;8.650;2023-01-16T11:22:20;1.20;;;1.00;;
11084;SDS011;5596;46.826;8.650;2023-01-16T11:24:50;0.60;;;0.60;;
11084;SDS011;5596;46.826;8.650;2023-01-16T11:27:21;1.37;;;1.20;;
11084;SDS011;5596;46.826;8.650;2023-01-16T11:29:51;0.87;;;0.77;;
11084;SDS011;5596;46.826;8.650;2023-01-16T11:32:19;0.70;;;0.70;;
11084;SDS011;5596;46.826;8.650;2023-01-16T11:34:52;1.60;;;0.70;;
11084;SDS011;5596;46.826;8.650;2023-01-16T11:37:21;0.83;;;0.77;;
11084;SDS011;5596;46.826;8.650;2023-01-16T11:39:53;1.40;;;0.63;;
11084;SDS011;5596;46.826;8.650;2023-01-16T11:42:23;0.60;;;0.60;;
11084;SDS011;5596;46.826;8.650;2023-01-16T11:45:12;0.70;;;0.70;;
11084;SDS011;5596;46.826;8.650;2023-01-16T11:47:58;1.33;;;0.70;;
11084;SDS011;5596;46.826;8.650;2023-01-16T11:50:29;0.80;;;0.80;;
11084;SDS011;5596;46.826;8.650;2023-01-16T11:52:58;0.70;;;0.70;;
11084;SDS011;5596;46.826;8.650;2023-01-16T11:55:27;2.37;;;0.90;;
11084;SDS011;5596;46.826;8.650;2023-01-16T11:58:03;0.87;;;0.80;;
11084;SDS011;5596;46.826;8.650;2023-01-16T12:00:39;0.73;;;0.73;;
11084;SDS011;5596;46.826;8.650;2023-01-16T12:06:14;0.60;;;0.60;;
11084;SDS011;5596;46.826;8.650;2023-01-16T12:08:57;0.70;;;0.70;;
11084;SDS011;5596;46.826;8.650;2023-01-16T12:11:39;0.80;;;0.80;;
11084;SDS011;5596;46.826;8.650;2023-01-16T12:14:17;0.83;;;0.80;;
11084;SDS011;5596;46.826;8.650;2023-01-16T12:16:55;0.80;;;0.80;;
11084;SDS011;5596;46.826;8.650;2023-01-16T12:22:43;0.70;;;0.70;;
11084;SDS011;5596;46.826;8.650;2023-01-16T12:25:22;1.80;;;0.80;;
11084;SDS011;5596;46.826;8.650;2023-01-16T12:27:56;1.10;;;0.80;;
11084;SDS011;5596;46.826;8.650;2023-01-16T12:30:35;1.00;;;0.90;;
11084;SDS011;5596;46.826;8.650;2023-01-16T12:34:02;1.30;;;1.10;;
11084;SDS011;5596;46.826;8.650;2023-01-16T12:36:40;0.93;;;0.87;;
11084;SDS011;5596;46.826;8.650;2023-01-16T12:39:22;1.20;;;0.70;;
11084;SDS011;5596;46.826;8.650;2023-01-16T12:42:02;0.80;;;0.80;;
11084;SDS011;5596;46.826;8.650;2023-01-16T12:44:57;0.70;;;0.70;;
11084;SDS011;5596;46.826;8.650;2023-01-16T12:47:36;0.90;;;0.70;;
11084;SDS011;5596;46.826;8.650;2023-01-16T12:50:17;0.60;;;0.60;;
11084;SDS011;5596;46.826;8.650;2023-01-16T12:52:57;1.23;;;0.73;;
11084;SDS011;5596;46.826;8.650;2023-01-16T12:55:38;1.37;;;0.70;;
11084;SDS011;5596;46.826;8.650;2023-01-16T12:58:14;1.43;;;1.10;;
11084;SDS011;5596;46.826;8.650;2023-01-16T13:00:45;1.17;;;0.80;;
11084;SDS011;5596;46.826;8.650;2023-01-16T13:03:19;0.93;;;0.80;;
11084;SDS011;5596;46.826;8.650;2023-01-16T13:05:53;2.27;;;0.73;;
11084;SDS011;5596;46.826;8.650;2023-01-16T13:08:24;0.67;;;0.67;;
11084;SDS011;5596;46.826;8.650;2023-01-16T13:11:01;0.70;;;0.70;;
11084;SDS011;5596;46.826;8.650;2023-01-16T13:13:54;1.03;;;0.93;;
11084;SDS011;5596;46.826;8.650;2023-01-16T13:16:25;1.00;;;0.80;;
11084;SDS011;5596;46.826;8.650;2023-01-16T13:18:58;0.87;;;0.80;;
11084;SDS011;5596;46.826;8.650;2023-01-16T13:21:30;0.80;;;0.77;;
11084;SDS011;5596;46.826;8.650;2023-01-16T13:24:01;0.70;;;0.70;;
11084;SDS011;5596;46.826;8.650;2023-01-16T13:26:37;1.47;;;0.90;;
11084;SDS011;5596;46.826;8.650;2023-01-16T13:29:07;0.80;;;0.80;;
11084;SDS011;5596;46.826;8.650;2023-01-16T13:31:40;1.43;;;1.00;;
11084;SDS011;5596;46.826;8.650;2023-01-16T13:34:14;0.70;;;0.70;;
11084;SDS011;5596;46.826;8.650;2023-01-16T13:37:01;0.97;;;0.87;;
11084;SDS011;5596;46.826;8.650;2023-01-16T13:42:47;0.77;;;0.77;;
11084;SDS011;5596;46.826;8.650;2023-01-16T13:45:18;0.80;;;0.70;;
11084;SDS011;5596;46.826;8.650;2023-01-16T13:48:12;1.27;;;0.90;;
11084;SDS011;5596;46.826;8.650;2023-01-16T13:50:42;0.80;;;0.80;;
11084;SDS011;5596;46.826;8.650;2023-01-16T13:53:14;1.57;;;0.80;;
11084;SDS011;5596;46.826;8.650;2023-01-16T13:55:41;1.20;;;0.77;;
11084;SDS011;5596;46.826;8.650;2023-01-16T13:58:14;1.03;;;0.70;;
11084;SDS011;5596;46.826;8.650;2023-01-16T14:00:44;0.80;;;0.80;;
11084;SDS011;5596;46.826;8.650;2023-01-16T14:03:22;0.70;;;0.70;;
11084;SDS011;5596;46.826;8.650;2023-01-16T14:05:53;0.80;;;0.80;;
11084;SDS011;5596;46.826;8.650;2023-01-16T14:08:48;1.40;;;1.00;;
11084;SDS011;5596;46.826;8.650;2023-01-16T14:11:37;0.70;;;0.70;;
11084;SDS011;5596;46.826;8.650;2023-01-16T14:14:31;0.80;;;0.80;;
11084;SDS011;5596;46.826;8.650;2023-01-16T14:17:18;0.90;;;0.90;;
11084;SDS011;5596;46.826;8.650;2023-01-16T14:19:51;1.10;;;0.83;;
11084;SDS011;5596;46.826;8.650;2023-01-16T14:22:21;1.53;;;1.00;;
11084;SDS011;5596;46.826;8.650;2023-01-16T14:25:16;1.33;;;0.93;;
11084;SDS011;5596;46.826;8.650;2023-01-16T14:27:48;0.77;;;0.70;;
11084;SDS011;5596;46.826;8.650;2023-01-16T14:32:51;0.97;;;0.93;;
11084;SDS011;5596;46.826;8.650;2023-01-16T14:35:22;1.43;;;1.00;;
11084;SDS011;5596;46.826;8.650;2023-01-16T14:38:02;0.90;;;0.80;;
11084;SDS011;5596;46.826;8.650;2023-01-16T14:40:33;2.97;;;0.97;;
11084;SDS011;5596;46.826;8.650;2023-01-16T14:43:26;1.30;;;0.97;;
11084;SDS011;5596;46.826;8.650;2023-01-16T14:46:13;1.20;;;1.10;;
11084;SDS011;5596;46.826;8.650;2023-01-16T14:52:44;1.17;;;0.83;;
11084;SDS011;5596;46.826;8.650;2023-01-16T14:55:42;0.93;;;0.90;;
11084;SDS011;5596;46.826;8.650;2023-01-16T14:58:14;0.80;;;0.80;;
11084;SDS011;5596;46.826;8.650;2023-01-16T15:00:47;1.37;;;1.00;;
11084;SDS011;5596;46.826;8.650;2023-01-16T15:03:21;1.93;;;0.97;;
11084;SDS011;5596;46.826;8.650;2023-01-16T15:05:55;1.50;;;1.00;;
11084;SDS011;5596;46.826;8.650;2023-01-16T15:08:30;2.53;;;1.10;;
11084;SDS011;5596;46.826;8.650;2023-01-16T15:11:01;1.20;;;1.00;;
11084;SDS011;5596;46.826;8.650;2023-01-16T15:14:12;0.80;;;0.80;;
11084;SDS011;5596;46.826;8.650;2023-01-16T15:17:01;0.70;;;0.70;;
11084;SDS011;5596;46.826;8.650;2023-01-16T15:20:01;0.70;;;0.70;;
11084;SDS011;5596;46.826;8.650;2023-01-16T15:23:03;0.93;;;0.80;;
11084;SDS011;5596;46.826;8.650;2023-01-16T15:28:38;2.23;;;0.90;;
11084;SDS011;5596;46.826;8.650;2023-01-16T15:31:15;1.50;;;0.80;;
11084;SDS011;5596;46.826;8.650;2023-01-16T15:33:43;0.90;;;0.90;;
11084;SDS011;5596;46.826;8.650;2023-01-16T15:36:19;1.43;;;0.70;;
11084;SDS011;5596;46.826;8.650;2023-01-16T15:38:52;1.90;;;0.70;;
11084;SDS011;5596;46.826;8.650;2023-01-16T15:41:21;1.07;;;0.80;;
11084;SDS011;5596;46.826;8.650;2023-01-16T15:44:08;5.20;;;0.97;;
11084;SDS011;5596;46.826;8.650;2023-01-16T15:46:58;1.43;;;1.00;;
11084;SDS011;5596;46.826;8.650;2023-01-16T15:49:42;0.90;;;0.90;;
11084;SDS011;5596;46.826;8.650;2023-01-16T15:52:19;1.20;;;0.90;;
11084;SDS011;5596;46.826;8.650;2023-01-16T15:54:46;0.70;;;0.70;;
11084;SDS011;5596;46.826;8.650;2023-01-16T15:57:14;0.70;;;0.70;;
11084;SDS011;5596;46.826;8.650;2023-01-16T15:59:50;1.70;;;1.00;;